Wetterdaten der Wetterstation 52249 Eschweiler

Letzte Wetterlage 29.11.2014 06:52
Wetterdiagramm
Tabellarische Darstellung
Datum Temperatur Windchill Feuchte Luftdruck Windrichtung Windstärke Niederschlag
29.11.2014 06:52 2,8 °C 1,4 °C 97 % 1012,6 hPa 124 2.2 0,00 mm
29.11.2014 06:32 2,7 °C -3,4 °C 97 % 1012,4 hPa 84 4.0 0,00 mm
29.11.2014 06:12 2,7 °C 1,3 °C 98 % 1012,4 hPa 38 2.2 0,00 mm
29.11.2014 05:52 2,7 °C -2,5 °C 98 % 1012,3 hPa 86 3.6 0,00 mm
29.11.2014 05:32 2,8 °C 2,8 °C 98 % 1012,3 hPa 74 1.3 0,00 mm
29.11.2014 05:12 2,9 °C -1,1 °C 98 % 1012,1 hPa 98 3.1 0,00 mm
29.11.2014 04:52 2,9 °C -1,1 °C 98 % 1012,0 hPa 76 3.1 0,00 mm
29.11.2014 04:32 2,9 °C 2,9 °C 98 % 1011,9 hPa 117 1.3 0,00 mm
29.11.2014 04:12 2,9 °C -2,3 °C 98 % 1011,9 hPa 107 3.6 0,00 mm
29.11.2014 03:52 2,9 °C -6,3 °C 98 % 1011,7 hPa 101 5.8 0,00 mm
29.11.2014 03:32 3,0 °C 3,0 °C 98 % 1011,8 hPa 67 1.8 0,00 mm
29.11.2014 03:12 3,2 °C 0,3 °C 98 % 1012,0 hPa 110 2.7 0,00 mm
29.11.2014 02:52 3,3 °C -0,6 °C 98 % 1012,0 hPa 86 3.1 0,00 mm
29.11.2014 02:32 3,3 °C -0,6 °C 98 % 1011,8 hPa 80 3.1 0,00 mm
29.11.2014 02:12 3,4 °C -2,5 °C 98 % 1011,8 hPa 58 4.0 0,00 mm
29.11.2014 01:52 3,4 °C -0,5 °C 98 % 1011,7 hPa 97 3.1 0,00 mm
29.11.2014 01:32 3,4 °C -1,7 °C 98 % 1011,6 hPa 75 3.6 0,00 mm
29.11.2014 01:12 3,4 °C 3,4 °C 98 % 1011,5 hPa 59 1.8 0,00 mm
29.11.2014 00:52 3,6 °C 2,2 °C 97 % 1011,4 hPa 74 2.2 0,00 mm
29.11.2014 00:32 3,7 °C -1,3 °C 97 % 1011,3 hPa 84 3.6 0,00 mm
29.11.2014 00:12 3,7 °C 0,8 °C 97 % 1011,4 hPa 61 2.7 0,00 mm
Empfehlen Sie wetter.com
| Mehr
Neue Wetterwarnung

Neue Niederschlagsmeldung
Neue Meldung
Regen Liveticker
    sehr starker Regen/Gewitter
    starker Regen/Gewitter
    mäßiger bis starker Regen
    mäßiger Regen
    leichter bis mäßiger Regen
    kein Regen